Time;durP1;ratioP1;P1;durP2;ratioP2;P2;SDS_P1;SDS_P2;PMS_P1;PMS_P2;Temp;Humidity;BMP_temperature;BMP_pressure;BME280_temperature;BME280_humidity;BME280_pressure;Samples;Min_cycle;Max_cycle;Signal;HPM_P1;HPM_P2
2023/11/16 00:01:41;;;;;;;1.95;0.85;;;;;;;11.41;67.00;97452.97;4962890;28;20657;-81
2023/11/16 00:04:07;;;;;;;3.72;0.93;;;;;;;11.46;66.92;97454.03;4953881;28;20214;-80
2023/11/16 00:06:32;;;;;;;3.58;0.88;;;;;;;11.37;66.55;97446.66;4921926;28;20682;-80
2023/11/16 00:08:57;;;;;;;4.10;1.27;;;;;;;11.32;67.12;97446.59;4964960;28;20110;-81
2023/11/16 00:11:24;;;;;;;2.35;0.80;;;;;;;11.33;66.78;97442.97;4933474;28;20617;-81
2023/11/16 00:13:50;;;;;;;2.88;1.27;;;;;;;11.31;67.00;97442.41;4948336;28;20029;-80
2023/11/16 00:16:16;;;;;;;3.47;0.90;;;;;;;11.21;67.13;97442.28;4949707;28;20234;-80
2023/11/16 00:18:42;;;;;;;3.33;0.82;;;;;;;11.25;67.03;97443.38;4939025;28;20191;-81
2023/11/16 00:21:09;;;;;;;2.72;0.80;;;;;;;11.30;67.04;97443.44;4966103;28;20751;-81
2023/11/16 00:23:34;;;;;;;3.53;0.90;;;;;;;11.25;67.33;97433.72;4958484;28;20373;-81
2023/11/16 00:26:00;;;;;;;4.78;1.05;;;;;;;11.27;67.58;97435.31;4945611;28;20185;-81
2023/11/16 00:28:26;;;;;;;4.15;1.35;;;;;;;11.25;67.67;97427.72;4977588;28;20213;-81
2023/11/16 00:30:55;;;;;;;5.60;1.67;;;;;;;11.37;66.07;97430.22;4957439;28;20261;-81
2023/11/16 00:33:20;;;;;;;3.85;1.20;;;;;;;11.31;66.59;97418.97;4940233;28;20206;-81
2023/11/16 00:35:46;;;;;;;1.77;1.05;;;;;;;11.20;67.56;97404.22;4958777;28;20621;-81
2023/11/16 00:38:15;;;;;;;5.82;1.30;;;;;;;11.25;67.10;97417.31;4924087;28;20330;-81
2023/11/16 00:40:42;;;;;;;3.75;1.05;;;;;;;11.27;67.49;97417.84;4938919;28;20341;-81
2023/11/16 00:43:09;;;;;;;3.15;1.38;;;;;;;11.29;66.71;97415.00;4951684;28;20165;-81
2023/11/16 00:45:37;;;;;;;2.55;1.30;;;;;;;11.27;66.63;97409.25;4946205;28;20254;-81
2023/11/16 00:48:03;;;;;;;3.13;1.30;;;;;;;11.32;66.40;97409.31;4958075;28;20248;-81
2023/11/16 00:50:28;;;;;;;1.92;1.25;;;;;;;11.29;66.74;97402.75;4926059;28;20340;-81
2023/11/16 00:52:55;;;;;;;3.42;1.23;;;;;;;11.31;66.35;97413.75;4932636;28;20223;-81
2023/11/16 00:55:21;;;;;;;5.22;1.55;;;;;;;11.24;66.65;97410.50;4946975;28;20364;-81
2023/11/16 00:57:47;;;;;;;2.78;1.27;;;;;;;11.13;67.24;97401.00;4949890;28;20041;-81
2023/11/16 01:00:14;;;;;;;3.95;1.42;;;;;;;11.24;67.14;97400.09;4979876;28;20245;-81
2023/11/16 01:02:40;;;;;;;2.33;1.52;;;;;;;11.16;68.02;97398.69;4939092;28;20198;-80
2023/11/16 01:05:06;;;;;;;3.47;1.45;;;;;;;11.14;67.37;97384.31;4955216;28;20290;-81
2023/11/16 01:07:32;;;;;;;3.00;1.27;;;;;;;11.25;67.79;97391.25;4942708;28;20174;-81
2023/11/16 01:10:03;;;;;;;3.97;1.90;;;;;;;11.11;68.25;97390.81;4939611;28;20301;-81
2023/11/16 01:12:29;;;;;;;3.88;1.00;;;;;;;11.14;67.98;97389.53;4938965;28;20164;-81
2023/11/16 01:14:59;;;;;;;2.08;1.08;;;;;;;11.17;67.42;97402.09;4948334;28;20613;-81
2023/11/16 01:17:31;;;;;;;4.95;1.35;;;;;;;11.19;67.37;97397.41;4933780;28;20187;-81
2023/11/16 01:19:59;;;;;;;3.92;1.40;;;;;;;11.18;67.02;97396.63;4959352;28;20713;-81
2023/11/16 01:22:28;;;;;;;3.47;0.90;;;;;;;11.27;67.36;97406.63;4919312;28;20477;-81
2023/11/16 01:24:53;;;;;;;3.33;1.55;;;;;;;11.24;67.09;97415.72;4962730;28;20634;-81
2023/11/16 01:27:25;;;;;;;3.42;1.55;;;;;;;11.29;66.76;97412.41;4941097;28;20281;-80
2023/11/16 01:29:51;;;;;;;2.22;1.35;;;;;;;11.16;67.65;97413.56;4922789;28;20272;-81
2023/11/16 01:32:17;;;;;;;3.92;1.70;;;;;;;11.16;68.01;97418.75;4937960;28;20289;-80
2023/11/16 01:34:44;;;;;;;5.53;2.22;;;;;;;11.15;67.53;97417.19;4939035;28;20620;-81
2023/11/16 01:37:10;;;;;;;3.85;1.40;;;;;;;11.26;67.92;97411.06;4930244;28;20191;-80
2023/11/16 01:39:38;;;;;;;4.20;2.25;;;;;;;11.16;67.67;97416.16;4921148;28;20493;-81
2023/11/16 01:42:05;;;;;;;5.63;1.83;;;;;;;11.07;68.00;97413.19;4944957;28;20290;-81
2023/11/16 01:44:30;;;;;;;4.28;1.40;;;;;;;11.26;67.70;97418.91;4923779;28;20252;-82
2023/11/16 01:46:57;;;;;;;3.83;1.48;;;;;;;11.16;67.36;97413.56;4958770;28;20273;-81
2023/11/16 01:49:22;;;;;;;4.07;2.08;;;;;;;11.19;67.25;97410.44;4931664;28;20208;-80
2023/11/16 01:51:53;;;;;;;9.30;2.47;;;;;;;11.23;67.21;97409.72;4952935;28;20573;-81
2023/11/16 01:54:20;;;;;;;4.43;1.52;;;;;;;11.21;67.06;97411.78;4932478;28;20473;-81
2023/11/16 01:56:47;;;;;;;6.40;2.40;;;;;;;11.01;67.98;97407.09;4934791;28;20884;-80
2023/11/16 01:59:14;;;;;;;2.42;1.30;;;;;;;11.06;67.88;97399.34;4950768;28;20266;-81
2023/11/16 02:01:39;;;;;;;6.78;1.63;;;;;;;11.10;67.93;97404.88;4958343;28;20200;-81
2023/11/16 02:04:05;;;;;;;3.13;1.60;;;;;;;11.15;67.83;97399.72;4940527;28;20071;-81
2023/11/16 02:06:31;;;;;;;5.90;1.50;;;;;;;11.25;66.96;97396.44;4940175;28;20265;-81
2023/11/16 02:08:57;;;;;;;5.57;1.85;;;;;;;11.22;67.48;97399.53;4951614;28;20268;-81
2023/11/16 02:11:22;;;;;;;2.80;1.30;;;;;;;11.20;67.53;97393.78;4961605;28;20467;-81
2023/11/16 02:13:49;;;;;;;2.83;1.63;;;;;;;11.15;67.62;97386.69;4942793;28;20563;-81
2023/11/16 02:16:14;;;;;;;4.00;1.58;;;;;;;11.16;67.69;97400.53;4941357;28;20347;-81
2023/11/16 02:18:40;;;;;;;7.82;1.45;;;;;;;11.26;67.59;97398.03;4946415;28;20199;-81
2023/11/16 02:21:06;;;;;;;4.82;1.75;;;;;;;11.31;66.81;97397.28;4941922;28;20175;-81
2023/11/16 02:23:36;;;;;;;3.15;1.95;;;;;;;11.30;67.04;97401.72;4955046;28;20544;-81
2023/11/16 02:26:02;;;;;;;3.90;1.70;;;;;;;11.19;67.46;97393.00;4951929;28;20169;-80
2023/11/16 02:28:29;;;;;;;3.22;1.75;;;;;;;11.11;67.82;97397.84;4938908;28;20241;-81
2023/11/16 02:30:57;;;;;;;4.07;1.20;;;;;;;11.05;68.03;97389.97;4957532;28;20267;-80
2023/11/16 02:33:23;;;;;;;5.15;1.80;;;;;;;11.04;66.93;97377.97;4936138;28;20707;-81
2023/11/16 02:35:48;;;;;;;4.95;2.08;;;;;;;11.14;66.72;97384.31;4974990;28;20534;-81
2023/11/16 02:38:16;;;;;;;2.78;1.27;;;;;;;11.02;67.32;97374.81;4926857;28;20204;-81
2023/11/16 02:40:41;;;;;;;2.28;1.23;;;;;;;11.00;67.49;97368.25;4915366;28;20632;-80
2023/11/16 02:43:07;;;;;;;1.75;1.33;;;;;;;11.00;68.13;97366.47;4959081;28;20176;-81
2023/11/16 02:45:34;;;;;;;5.53;1.98;;;;;;;11.00;67.92;97357.84;4932645;28;20379;-81
2023/11/16 02:48:00;;;;;;;4.60;2.10;;;;;;;11.00;68.35;97353.44;4959477;28;20361;-81
2023/11/16 02:50:26;;;;;;;4.72;2.00;;;;;;;11.01;67.94;97362.81;4938951;28;20280;-80
2023/11/16 02:52:55;;;;;;;3.10;1.45;;;;;;;11.16;68.06;97362.22;4949111;28;20703;-80
2023/11/16 02:55:24;;;;;;;7.00;1.35;;;;;;;11.17;67.54;97363.00;4955252;28;20667;-81
2023/11/16 02:57:50;;;;;;;4.35;1.63;;;;;;;11.22;67.69;97369.06;4928466;28;20922;-81
2023/11/16 03:00:17;;;;;;;6.18;3.20;;;;;;;11.13;67.51;97356.69;4929100;28;20270;-81
2023/11/16 03:02:43;;;;;;;5.07;1.73;;;;;;;11.12;67.49;97366.34;4960388;28;20733;-81
2023/11/16 03:05:10;;;;;;;3.13;1.58;;;;;;;11.23;67.29;97362.81;4946544;28;20249;-80
2023/11/16 03:07:37;;;;;;;5.00;1.45;;;;;;;11.22;67.20;97363.84;4946649;28;20333;-80
2023/11/16 03:10:10;;;;;;;5.90;1.58;;;;;;;11.21;67.39;97366.72;4933326;28;20166;-80
2023/11/16 03:12:36;;;;;;;2.60;1.45;;;;;;;11.18;67.49;97367.19;4948790;28;20216;-80
2023/11/16 03:15:05;;;;;;;4.07;1.90;;;;;;;11.18;68.02;97361.97;4975183;28;20225;-81
2023/11/16 03:17:36;;;;;;;5.88;2.10;;;;;;;11.11;68.02;97348.34;4939359;28;20207;-81
2023/11/16 03:20:02;;;;;;;5.25;1.77;;;;;;;11.24;67.64;97337.53;4934298;28;20330;-81
2023/11/16 03:22:31;;;;;;;5.45;1.73;;;;;;;11.30;67.75;97328.75;4929444;28;20660;-81
2023/11/16 03:24:57;;;;;;;4.45;1.83;;;;;;;11.25;67.59;97329.47;4931199;28;20203;-80
2023/11/16 03:27:22;;;;;;;5.38;2.13;;;;;;;11.31;67.21;97334.72;4942375;28;20173;-81
2023/11/16 03:29:48;;;;;;;3.78;1.67;;;;;;;11.32;66.81;97328.50;4926898;28;20198;-81
2023/11/16 03:32:14;;;;;;;6.90;2.30;;;;;;;11.30;66.73;97333.94;4938033;28;20248;-81
2023/11/16 03:34:39;;;;;;;5.60;2.22;;;;;;;11.24;67.16;97327.91;4950177;28;20816;-81
2023/11/16 03:37:05;;;;;;;5.47;2.30;;;;;;;11.26;67.43;97325.06;4939955;28;20191;-81
2023/11/16 03:39:31;;;;;;;6.65;2.05;;;;;;;11.24;66.71;97322.69;4956996;28;20179;-81
2023/11/16 03:41:58;;;;;;;2.47;1.90;;;;;;;11.28;66.99;97327.44;4927668;28;20202;-81
2023/11/16 03:44:24;;;;;;;6.00;2.17;;;;;;;11.21;66.95;97323.19;4944083;28;20199;-81
2023/11/16 03:46:49;;;;;;;4.05;1.60;;;;;;;11.14;67.04;97316.56;4945059;28;20220;-81
2023/11/16 03:49:14;;;;;;;2.72;2.15;;;;;;;11.13;67.12;97323.59;4941920;28;20684;-81
2023/11/16 03:51:40;;;;;;;6.07;2.67;;;;;;;11.03;67.87;97308.63;4942353;28;20212;-81
2023/11/16 03:54:05;;;;;;;5.50;1.88;;;;;;;11.09;68.01;97319.91;4953813;28;20680;-80
2023/11/16 03:56:31;;;;;;;5.07;1.70;;;;;;;11.14;67.71;97332.19;4950015;28;20307;-81
2023/11/16 03:58:56;;;;;;;4.13;1.90;;;;;;;11.22;67.13;97335.19;4961630;28;20716;-81
2023/11/16 04:01:21;;;;;;;5.85;2.03;;;;;;;11.08;67.88;97320.16;4924691;28;20165;-81
2023/11/16 04:03:47;;;;;;;3.65;2.05;;;;;;;11.12;67.79;97316.03;4940361;28;20247;-81
2023/11/16 04:06:19;;;;;;;4.65;2.30;;;;;;;11.24;67.47;97320.09;4944483;28;20266;-81
2023/11/16 04:08:48;;;;;;;4.25;2.25;;;;;;;11.22;68.05;97323.97;4927425;28;20471;-82
2023/11/16 04:11:17;;;;;;;4.28;2.40;;;;;;;11.12;68.46;97313.41;4950074;28;20248;-81
2023/11/16 04:13:44;;;;;;;6.63;2.17;;;;;;;11.12;67.32;97305.59;4928131;28;20286;-82
2023/11/16 04:16:21;;;;;;;7.10;2.05;;;;;;;11.18;67.48;97299.44;4938652;28;20611;-80
2023/11/16 04:18:50;;;;;;;4.35;2.20;;;;;;;11.16;67.39;97310.09;4946841;28;20656;-82
2023/11/16 04:21:18;;;;;;;6.85;2.55;;;;;;;11.09;67.89;97311.28;4926619;28;20175;-81
2023/11/16 04:23:52;;;;;;;3.92;2.08;;;;;;;11.18;68.02;97304.63;4950708;28;20751;-82
2023/11/16 04:26:24;;;;;;;9.03;2.93;;;;;;;11.21;68.01;97301.56;4947954;28;20211;-82
2023/11/16 04:28:54;;;;;;;5.53;2.10;;;;;;;11.18;67.65;97302.81;4961834;28;20251;-82
2023/11/16 04:31:19;;;;;;;4.07;2.40;;;;;;;11.17;67.39;97311.69;4935385;28;20321;-82
2023/11/16 04:33:47;;;;;;;6.45;2.42;;;;;;;11.21;67.53;97309.38;4939429;28;20795;-81
2023/11/16 04:36:23;;;;;;;3.42;2.28;;;;;;;11.30;67.24;97310.50;4949206;28;20585;-82
2023/11/16 04:38:50;;;;;;;6.22;2.97;;;;;;;11.23;67.39;97307.28;4932892;28;20942;-81
2023/11/16 04:41:16;;;;;;;7.68;3.28;;;;;;;11.22;67.31;97301.31;4952230;28;20651;-81
2023/11/16 04:43:44;;;;;;;5.07;2.70;;;;;;;11.23;67.97;97302.09;4923799;28;20211;-81
2023/11/16 04:46:12;;;;;;;6.55;3.42;;;;;;;11.30;67.02;97305.28;4942820;28;20203;-81
2023/11/16 04:48:41;;;;;;;8.43;3.20;;;;;;;11.29;67.47;97301.09;4926976;28;20624;-81
2023/11/16 04:51:07;;;;;;;6.68;2.75;;;;;;;11.19;67.92;97296.56;4928914;28;20164;-81
2023/11/16 04:53:34;;;;;;;5.28;3.53;;;;;;;11.18;67.97;97294.22;4928183;28;20169;-82
2023/11/16 04:55:59;;;;;;;7.28;3.35;;;;;;;11.10;67.67;97294.63;4940910;28;20204;-82
2023/11/16 04:58:25;;;;;;;4.30;2.92;;;;;;;11.19;68.23;97287.94;4924089;28;20175;-82
2023/11/16 05:00:50;;;;;;;9.15;3.58;;;;;;;11.20;67.90;97284.31;4934000;28;20181;-81
2023/11/16 05:03:15;;;;;;;8.40;3.40;;;;;;;11.18;67.72;97281.19;4932484;28;20227;-82
2023/11/16 05:05:41;;;;;;;6.68;3.72;;;;;;;11.23;67.79;97283.84;4957240;28;20347;-81
2023/11/16 05:08:06;;;;;;;6.15;3.25;;;;;;;11.28;67.48;97281.28;4961506;28;20570;-80
2023/11/16 05:10:32;;;;;;;8.85;3.13;;;;;;;11.26;67.46;97270.31;4943213;28;20200;-81
2023/11/16 05:12:57;;;;;;;7.45;3.75;;;;;;;11.27;67.77;97279.69;4938489;28;20191;-81
2023/11/16 05:15:23;;;;;;;8.07;4.32;;;;;;;11.27;68.04;97265.88;4942287;28;20269;-80
2023/11/16 05:17:48;;;;;;;10.25;4.00;;;;;;;11.19;68.10;97261.88;4954895;28;20382;-81
2023/11/16 05:20:16;;;;;;;9.40;4.60;;;;;;;11.27;67.32;97266.66;4945707;28;20609;-81
2023/11/16 05:22:41;;;;;;;6.35;4.03;;;;;;;11.19;67.98;97277.53;4948611;28;20189;-81
2023/11/16 05:25:07;;;;;;;6.18;3.90;;;;;;;11.19;67.86;97272.31;4928622;28;20303;-82
2023/11/16 05:27:33;;;;;;;6.60;3.80;;;;;;;11.15;67.81;97264.19;4945107;28;20714;-81
2023/11/16 05:29:59;;;;;;;11.15;5.13;;;;;;;11.25;67.64;97264.31;4934481;28;20183;-81
2023/11/16 05:32:25;;;;;;;9.00;4.00;;;;;;;11.24;68.07;97254.94;4957203;28;20774;-81
2023/11/16 05:34:51;;;;;;;9.77;4.55;;;;;;;11.24;67.40;97254.13;4940899;28;20251;-81
2023/11/16 05:37:17;;;;;;;8.77;4.38;;;;;;;11.17;67.31;97250.94;4920403;28;20781;-82
2023/11/16 05:39:43;;;;;;;8.10;4.20;;;;;;;11.31;67.31;97246.91;4949956;28;20279;-81
2023/11/16 05:42:08;;;;;;;5.85;3.80;;;;;;;11.29;67.67;97256.00;4951565;28;20710;-82
2023/11/16 05:44:34;;;;;;;7.22;3.50;;;;;;;11.20;67.74;97243.41;4915493;28;20134;-82
2023/11/16 05:47:03;;;;;;;6.15;3.40;;;;;;;11.22;67.70;97245.78;4931311;28;20208;-82
2023/11/16 05:49:28;;;;;;;8.65;3.83;;;;;;;11.23;67.83;97247.34;4946376;28;20269;-82
2023/11/16 05:51:53;;;;;;;5.97;3.58;;;;;;;11.21;67.57;97241.59;4949093;28;20168;-81
2023/11/16 05:54:20;;;;;;;8.77;4.30;;;;;;;11.18;68.01;97240.25;4950726;28;20317;-81
2023/11/16 05:56:48;;;;;;;8.18;4.47;;;;;;;11.31;67.37;97233.06;4937737;28;20178;-81
2023/11/16 05:59:13;;;;;;;9.55;4.32;;;;;;;11.18;68.09;97213.44;4963329;28;20237;-81
2023/11/16 06:01:43;;;;;;;8.18;3.75;;;;;;;11.25;68.17;97220.00;4946948;28;20714;-82
2023/11/16 06:04:08;;;;;;;7.50;3.60;;;;;;;11.18;67.74;97208.22;4954787;28;20422;-81
2023/11/16 06:06:34;;;;;;;5.32;3.55;;;;;;;11.22;67.92;97214.50;4920796;28;20204;-81
2023/11/16 06:09:01;;;;;;;7.57;4.18;;;;;;;11.20;68.35;97212.13;4931125;28;20667;-82
2023/11/16 06:11:26;;;;;;;5.95;3.08;;;;;;;11.21;68.28;97213.72;4961880;28;20184;-82
2023/11/16 06:13:54;;;;;;;7.22;3.67;;;;;;;11.20;68.08;97200.94;4940890;28;20315;-82
2023/11/16 06:16:21;;;;;;;5.22;3.70;;;;;;;11.23;67.67;97205.66;4963677;28;20195;-81
2023/11/16 06:18:47;;;;;;;6.65;3.72;;;;;;;11.24;68.02;97208.00;4950665;28;20185;-81
2023/11/16 06:21:13;;;;;;;5.20;3.33;;;;;;;11.25;67.41;97214.00;4942776;28;20564;-81
2023/11/16 06:23:38;;;;;;;11.57;4.55;;;;;;;11.22;67.33;97217.09;4946724;28;20172;-80
2023/11/16 06:26:04;;;;;;;5.40;3.45;;;;;;;11.21;68.04;97207.72;4932698;28;20165;-80
2023/11/16 06:28:30;;;;;;;7.75;3.53;;;;;;;11.27;67.98;97224.19;4945165;28;20212;-81
2023/11/16 06:30:56;;;;;;;6.68;3.88;;;;;;;11.28;68.27;97223.16;4914504;28;20174;-81
2023/11/16 06:33:21;;;;;;;8.50;4.30;;;;;;;11.36;67.79;97213.06;4961850;28;20238;-80
2023/11/16 06:35:47;;;;;;;9.15;3.63;;;;;;;11.27;67.66;97219.75;4943449;28;20285;-81
2023/11/16 06:38:13;;;;;;;8.02;3.13;;;;;;;11.19;67.67;97201.94;4942784;28;20783;-81
2023/11/16 06:40:39;;;;;;;10.05;4.15;;;;;;;11.19;68.05;97194.13;4945135;28;20255;-81
2023/11/16 06:43:04;;;;;;;7.68;3.80;;;;;;;11.26;67.77;97202.56;4935741;28;20578;-80
2023/11/16 06:45:31;;;;;;;8.13;4.20;;;;;;;11.23;67.57;97211.63;4921667;28;20294;-81
2023/11/16 06:48:00;;;;;;;6.35;3.30;;;;;;;11.20;67.94;97201.72;4947172;28;20188;-81
2023/11/16 06:50:28;;;;;;;4.35;2.92;;;;;;;11.20;68.28;97191.28;4931450;28;20208;-81
2023/11/16 06:52:53;;;;;;;8.00;3.70;;;;;;;11.23;67.76;97197.84;4950887;28;20200;-80
2023/11/16 06:55:19;;;;;;;9.43;3.42;;;;;;;11.19;67.33;97194.13;4943693;28;20188;-81
2023/11/16 06:57:44;;;;;;;6.95;3.97;;;;;;;11.18;67.36;97189.97;4958294;28;20207;-81
2023/11/16 07:00:14;;;;;;;8.23;3.75;;;;;;;11.23;67.63;97195.22;4942089;28;20629;-81
2023/11/16 07:02:43;;;;;;;8.38;4.07;;;;;;;11.17;67.60;97180.56;4941228;28;20324;-81
2023/11/16 07:05:09;;;;;;;7.45;3.97;;;;;;;11.14;68.49;97181.06;4951067;28;20210;-81
2023/11/16 07:07:35;;;;;;;7.05;3.83;;;;;;;11.11;68.39;97165.94;4924857;28;20568;-81
2023/11/16 07:10:01;;;;;;;8.38;4.18;;;;;;;11.19;67.88;97183.72;4950227;28;20764;-81
2023/11/16 07:12:27;;;;;;;6.97;4.45;;;;;;;11.18;68.06;97175.09;4962285;28;20370;-81
2023/11/16 07:14:52;;;;;;;8.40;4.15;;;;;;;11.24;68.97;97166.31;4928520;28;20521;-81
2023/11/16 07:17:18;;;;;;;8.23;3.47;;;;;;;11.25;68.52;97151.44;4951913;28;20575;-81
2023/11/16 07:19:44;;;;;;;7.38;3.40;;;;;;;11.34;68.35;97149.16;4943786;28;20325;-81
2023/11/16 07:22:10;;;;;;;7.57;3.72;;;;;;;11.28;67.88;97137.94;4932830;28;20289;-81
2023/11/16 07:24:36;;;;;;;7.80;4.10;;;;;;;11.25;68.26;97141.03;4951794;28;20278;-81
2023/11/16 07:27:02;;;;;;;8.73;4.35;;;;;;;11.21;67.58;97134.75;4947500;28;20321;-81
2023/11/16 07:29:28;;;;;;;6.65;3.85;;;;;;;11.33;67.49;97147.63;4931498;28;20203;-80
2023/11/16 07:31:54;;;;;;;6.35;3.53;;;;;;;11.34;67.95;97144.72;4926911;28;20161;-81
2023/11/16 07:34:21;;;;;;;4.80;3.22;;;;;;;11.39;67.82;97146.59;4934309;28;20301;-81
2023/11/16 07:36:48;;;;;;;6.70;3.88;;;;;;;11.36;67.91;97132.25;4942722;28;20222;-81
2023/11/16 07:39:14;;;;;;;6.18;3.60;;;;;;;11.40;67.42;97138.53;4960997;28;20575;-81
2023/11/16 07:41:40;;;;;;;9.55;3.33;;;;;;;11.40;68.13;97125.50;4947003;28;20573;-82
2023/11/16 07:44:06;;;;;;;7.88;3.97;;;;;;;11.39;67.30;97136.94;4930106;28;20233;-82
2023/11/16 07:46:31;;;;;;;7.50;3.40;;;;;;;11.46;68.03;97135.97;4956951;28;20207;-81
2023/11/16 07:49:00;;;;;;;8.02;3.92;;;;;;;11.51;67.66;97142.00;4950707;28;20571;-81
2023/11/16 07:51:26;;;;;;;7.97;3.42;;;;;;;11.46;67.89;97128.13;4955686;28;20190;-81
2023/11/16 07:53:54;;;;;;;6.03;3.22;;;;;;;11.46;67.88;97126.31;4960636;28;20796;-82
2023/11/16 07:56:22;;;;;;;6.85;3.33;;;;;;;11.65;67.25;97121.47;4957597;28;20181;-82
2023/11/16 07:58:49;;;;;;;6.60;3.38;;;;;;;11.52;67.69;97111.50;4986131;28;20732;-81
2023/11/16 08:01:17;;;;;;;7.20;3.60;;;;;;;11.60;67.47;97105.78;4941321;28;20016;-82
2023/11/16 08:03:46;;;;;;;9.80;3.75;;;;;;;11.53;67.55;97097.41;4940267;28;20283;-82
2023/11/16 08:06:12;;;;;;;6.05;2.95;;;;;;;11.56;67.43;97094.31;4930808;28;20295;-81
2023/11/16 08:08:41;;;;;;;5.80;2.78;;;;;;;11.67;67.20;97093.34;4958873;28;20278;-81
2023/11/16 08:11:11;;;;;;;5.93;3.15;;;;;;;11.56;67.21;97082.03;4943075;28;20277;-81
2023/11/16 08:13:45;;;;;;;9.95;4.20;;;;;;;11.59;67.45;97088.59;4946967;28;20195;-82
2023/11/16 08:16:12;;;;;;;6.43;2.93;;;;;;;11.70;67.15;97084.22;4947920;28;20656;-81
2023/11/16 08:18:38;;;;;;;5.70;2.63;;;;;;;11.69;67.22;97077.44;4963294;28;20360;-82
2023/11/16 08:21:10;;;;;;;6.80;2.53;;;;;;;11.74;67.24;97080.06;4933421;28;20298;-81
2023/11/16 08:23:39;;;;;;;6.57;2.75;;;;;;;11.70;66.84;97074.56;4934412;28;20265;-83
2023/11/16 08:26:12;;;;;;;5.95;2.78;;;;;;;11.74;67.21;97064.44;4928880;28;20224;-82
2023/11/16 08:28:46;;;;;;;6.65;2.63;;;;;;;11.74;67.44;97070.41;4955521;28;20770;-82
2023/11/16 08:31:15;;;;;;;5.50;2.80;;;;;;;11.66;67.78;97068.28;4943670;28;20717;-82
2023/11/16 08:33:42;;;;;;;7.15;3.03;;;;;;;11.60;67.42;97064.06;4958878;28;20187;-81
2023/11/16 08:36:15;;;;;;;6.88;2.80;;;;;;;11.66;67.62;97057.84;4931169;28;20278;-82
2023/11/16 08:38:45;;;;;;;8.20;2.80;;;;;;;11.61;67.40;97045.56;4959203;28;20336;-81
2023/11/16 08:41:15;;;;;;;6.38;3.08;;;;;;;11.62;67.51;97044.53;4963727;28;20381;-81
2023/11/16 08:43:43;;;;;;;10.77;3.10;;;;;;;11.64;67.75;97033.09;4951301;28;20216;-81
2023/11/16 08:46:10;;;;;;;5.05;3.08;;;;;;;11.69;67.50;97033.88;4949373;28;20287;-81
2023/11/16 08:48:36;;;;;;;6.57;3.13;;;;;;;11.66;67.13;97016.13;4944207;28;20399;-81
2023/11/16 08:51:05;;;;;;;4.93;2.20;;;;;;;11.77;66.96;97029.97;4923770;28;20204;-81
2023/11/16 08:53:32;;;;;;;4.65;2.20;;;;;;;11.79;67.17;97033.91;4917981;28;20407;-81
2023/11/16 08:56:04;;;;;;;9.45;3.08;;;;;;;11.69;67.05;97026.06;4948355;28;20714;-81
2023/11/16 08:58:34;;;;;;;6.38;2.60;;;;;;;11.77;67.36;97017.75;4983539;28;20592;-80
2023/11/16 09:01:06;;;;;;;5.90;2.67;;;;;;;11.84;67.30;97022.72;4951274;28;20273;-81
2023/11/16 09:03:33;;;;;;;7.25;2.45;;;;;;;11.86;66.20;97012.00;4961318;28;20191;-81
2023/11/16 09:06:06;;;;;;;6.47;3.35;;;;;;;12.05;66.67;97020.22;4950644;28;20295;-81
2023/11/16 09:08:37;;;;;;;6.07;2.40;;;;;;;11.96;66.81;97015.50;4919614;28;20660;-81
2023/11/16 09:11:03;;;;;;;6.43;2.88;;;;;;;11.93;66.77;97010.00;4965695;28;20587;-81
2023/11/16 09:13:29;;;;;;;4.72;2.05;;;;;;;11.95;66.90;97002.69;4944710;28;20290;-81
2023/11/16 09:15:55;;;;;;;8.23;2.92;;;;;;;12.01;65.94;96999.03;4939363;28;20169;-81
2023/11/16 09:18:23;;;;;;;3.38;2.00;;;;;;;11.93;66.74;96991.75;4926276;28;20626;-81
2023/11/16 09:20:49;;;;;;;5.00;2.60;;;;;;;11.91;66.37;96981.56;4960335;28;20286;-81
2023/11/16 09:23:15;;;;;;;7.80;2.15;;;;;;;12.01;66.20;96975.56;4944810;28;20352;-80
2023/11/16 09:25:41;;;;;;;6.10;2.42;;;;;;;11.94;66.77;96977.63;4930777;28;20245;-81
2023/11/16 09:28:07;;;;;;;6.00;1.50;;;;;;;11.91;66.45;96975.53;4938453;28;20260;-81
2023/11/16 09:30:38;;;;;;;5.18;1.85;;;;;;;12.05;65.85;96965.41;4938635;28;20326;-80
2023/11/16 09:33:05;;;;;;;6.88;2.08;;;;;;;12.05;65.73;96960.97;4945647;28;20187;-81
2023/11/16 09:35:31;;;;;;;4.97;2.60;;;;;;;12.03;66.71;96951.81;4950788;28;20260;-81
2023/11/16 09:37:56;;;;;;;4.30;1.95;;;;;;;12.01;66.81;96940.84;4947522;28;20291;-81
2023/11/16 09:40:28;;;;;;;6.63;2.53;;;;;;;12.09;66.36;96935.13;4933380;28;20633;-81
2023/11/16 09:42:57;;;;;;;4.80;1.67;;;;;;;12.04;66.46;96927.31;4951786;28;20230;-80
2023/11/16 09:45:27;;;;;;;4.88;1.75;;;;;;;12.06;66.43;96920.00;4929926;28;20211;-81
2023/11/16 09:48:12;;;;;;;5.07;2.15;;;;;;;12.17;65.35;96911.91;4953776;28;20203;-82
2023/11/16 09:50:43;;;;;;;3.97;1.90;;;;;;;12.20;66.05;96909.81;4947417;28;20734;-82
2023/11/16 09:53:17;;;;;;;5.45;1.90;;;;;;;12.12;66.15;96888.41;4950841;28;20156;-82
2023/11/16 09:55:55;;;;;;;5.70;1.92;;;;;;;12.17;65.55;96888.41;4965718;28;20261;-82
2023/11/16 09:58:25;;;;;;;4.05;1.50;;;;;;;12.13;65.68;96887.38;4949422;28;20290;-82
2023/11/16 10:00:58;;;;;;;4.15;1.77;;;;;;;12.29;65.44;96872.50;4943460;28;20200;-82
2023/11/16 10:03:26;;;;;;;7.82;1.75;;;;;;;12.11;65.60;96865.97;4944149;28;20236;-81
2023/11/16 10:05:55;;;;;;;5.30;2.00;;;;;;;12.10;66.82;96859.19;4947364;28;20169;-82
2023/11/16 10:08:27;;;;;;;5.97;1.98;;;;;;;12.32;65.27;96850.28;4950546;28;20222;-82
2023/11/16 10:10:54;;;;;;;3.38;1.30;;;;;;;12.20;66.21;96847.19;4957230;28;20675;-82
2023/11/16 10:13:21;;;;;;;5.85;2.17;;;;;;;12.05;66.71;96832.31;4966963;28;20702;-82
2023/11/16 10:15:48;;;;;;;4.40;1.58;;;;;;;12.10;65.79;96829.72;4946209;28;20216;-82
2023/11/16 10:18:13;;;;;;;4.32;1.75;;;;;;;12.06;66.56;96828.66;4924752;28;20161;-82
2023/11/16 10:20:41;;;;;;;3.55;1.38;;;;;;;12.08;66.49;96821.34;4949875;28;20540;-82
2023/11/16 10:23:07;;;;;;;4.65;2.05;;;;;;;12.01;66.55;96803.34;4949264;28;20644;-82
2023/11/16 10:25:35;;;;;;;4.03;1.98;;;;;;;12.09;66.87;96797.59;4946955;28;20188;-82
2023/11/16 10:28:03;;;;;;;6.20;2.25;;;;;;;12.01;66.54;96782.47;4932581;28;20661;-82
2023/11/16 10:30:28;;;;;;;7.35;1.83;;;;;;;12.03;66.58;96775.19;4938615;28;20212;-82
2023/11/16 10:32:53;;;;;;;4.25;1.95;;;;;;;11.98;67.11;96777.78;4963879;28;20282;-82
2023/11/16 10:35:19;;;;;;;4.03;1.73;;;;;;;11.95;66.80;96765.28;4966263;28;20188;-82
2023/11/16 10:37:45;;;;;;;3.17;1.30;;;;;;;12.01;67.37;96750.38;4949653;28;20338;-82
2023/11/16 10:40:11;;;;;;;5.18;1.63;;;;;;;12.03;67.20;96738.66;4928807;28;20150;-82
2023/11/16 10:42:45;;;;;;;8.80;2.58;;;;;;;12.04;66.73;96729.75;4928161;28;20290;-82
2023/11/16 10:45:14;;;;;;;3.95;1.95;;;;;;;11.98;66.75;96720.41;4950309;28;20211;-82
2023/11/16 10:47:44;;;;;;;2.63;1.33;;;;;;;12.13;66.25;96717.75;4934273;28;20648;-82
2023/11/16 10:50:10;;;;;;;4.53;1.65;;;;;;;12.15;66.45;96715.66;4932638;28;20237;-82
2023/11/16 10:52:39;;;;;;;4.22;1.35;;;;;;;12.17;66.00;96718.78;4918927;28;20330;-82
2023/11/16 10:55:16;;;;;;;7.18;1.52;;;;;;;12.11;66.76;96719.81;4959551;28;20643;-82
2023/11/16 10:57:42;;;;;;;4.75;1.65;;;;;;;12.11;66.26;96719.06;4947335;28;20348;-83
2023/11/16 11:00:16;;;;;;;5.53;2.17;;;;;;;12.11;65.84;96712.00;4933575;28;20276;-82
2023/11/16 11:02:45;;;;;;;6.18;1.52;;;;;;;12.15;66.31;96710.44;4965391;28;20211;-82
2023/11/16 11:05:11;;;;;;;4.85;1.58;;;;;;;12.13;65.35;96709.91;4934039;28;20274;-82
2023/11/16 11:07:53;;;;;;;4.32;1.50;;;;;;;12.13;65.04;96706.50;4929168;28;20201;-81
2023/11/16 11:10:21;;;;;;;4.72;1.63;;;;;;;12.07;65.64;96703.16;4957094;28;20196;-81
2023/11/16 11:12:47;;;;;;;4.43;1.85;;;;;;;12.07;66.09;96712.81;4951917;28;20218;-81
2023/11/16 11:15:34;;;;;;;2.95;1.20;;;;;;;12.27;65.07;96714.56;4962429;28;20318;-81
2023/11/16 11:18:00;;;;;;;3.38;1.33;;;;;;;12.14;65.97;96723.75;4933966;28;20534;-81
2023/11/16 11:20:36;;;;;;;5.00;1.48;;;;;;;12.16;65.71;96727.63;4934206;28;20248;-81
2023/11/16 11:23:18;;;;;;;3.20;1.10;;;;;;;12.19;65.35;96731.56;4961368;28;20207;-81
2023/11/16 11:25:44;;;;;;;5.38;1.15;;;;;;;12.12;65.21;96721.41;4936653;28;20238;-81
2023/11/16 11:28:15;;;;;;;2.60;1.30;;;;;;;12.21;65.35;96731.31;4935328;28;20184;-81
2023/11/16 11:30:54;;;;;;;5.80;1.50;;;;;;;12.13;66.57;96738.63;4937844;28;20367;-81
2023/11/16 11:33:24;;;;;;;5.32;1.38;;;;;;;12.07;66.72;96728.47;4954003;28;20137;-81
2023/11/16 11:35:52;;;;;;;3.70;1.70;;;;;;;11.98;66.63;96723.00;4948787;28;20266;-82